Time;durP1;ratioP1;P1;durP2;ratioP2;P2;SDS_P1;SDS_P2;PMS_P1;PMS_P2;Temp;Humidity;BMP_temperature;BMP_pressure;BME280_temperature;BME280_humidity;BME280_pressure;Samples;Min_cycle;Max_cycle;Signal;HPM_P1;HPM_P2
2023/09/29 00:01:46;;;;;;;9.67;6.07;;;;;;;;;;5015675;28;20179;-68
2023/09/29 00:04:12;;;;;;;8.47;5.80;;;;;;;;;;5014212;28;20207;-68
2023/09/29 00:06:38;;;;;;;8.27;6.17;;;;;;;;;;5015353;28;20538;-68
2023/09/29 00:09:07;;;;;;;10.73;6.63;;;;;;;;;;5015429;28;20637;-68
2023/09/29 00:11:33;;;;;;;9.73;6.00;;;;;;;;;;5015293;28;20200;-68
2023/09/29 00:13:59;;;;;;;11.87;6.97;;;;;;;;;;5015023;28;20221;-69
2023/09/29 00:16:25;;;;;;;9.93;6.73;;;;;;;;;;5015431;28;20172;-68
2023/09/29 00:18:52;;;;;;;10.10;6.63;;;;;;;;;;5013851;28;20585;-69
2023/09/29 00:21:18;;;;;;;13.20;6.40;;;;;;;;;;5014776;28;20203;-69
2023/09/29 00:23:44;;;;;;;8.53;6.20;;;;;;;;;;5015000;28;20199;-69
2023/09/29 00:26:10;;;;;;;9.47;6.60;;;;;;;;;;5013596;28;20180;-69
2023/09/29 00:28:36;;;;;;;8.17;6.10;;;;;;;;;;5013188;28;20654;-68
2023/09/29 00:31:04;;;;;;;10.60;6.07;;;;;;;;;;5015114;28;20261;-69
2023/09/29 00:33:30;;;;;;;11.73;5.47;;;;;;;;;;5014816;28;20259;-68
2023/09/29 00:35:59;;;;;;;10.00;5.97;;;;;;;;;;5014914;28;20172;-68
2023/09/29 00:38:25;;;;;;;13.50;6.10;;;;;;;;;;5014923;28;20219;-69
2023/09/29 00:40:51;;;;;;;11.90;6.07;;;;;;;;;;5014820;28;20180;-68
2023/09/29 00:43:17;;;;;;;12.03;6.27;;;;;;;;;;5014706;28;20234;-69
2023/09/29 00:45:44;;;;;;;9.07;5.47;;;;;;;;;;5014752;28;20195;-69
2023/09/29 00:48:10;;;;;;;7.93;5.80;;;;;;;;;;5014196;28;20245;-68
2023/09/29 00:50:39;;;;;;;12.30;5.80;;;;;;;;;;5013783;28;20610;-69
2023/09/29 00:53:13;;;;;;;10.07;5.40;;;;;;;;;;5012377;28;20188;-69
2023/09/29 00:55:44;;;;;;;6.50;5.07;;;;;;;;;;5013477;28;20183;-68
2023/09/29 00:58:12;;;;;;;9.40;5.37;;;;;;;;;;5013517;28;20242;-68
2023/09/29 01:00:41;;;;;;;10.77;5.50;;;;;;;;;;5013967;28;20182;-68
2023/09/29 01:03:12;;;;;;;9.73;5.20;;;;;;;;;;5012289;28;20183;-68
2023/09/29 01:05:42;;;;;;;11.47;5.33;;;;;;;;;;5012385;28;20172;-69
2023/09/29 01:08:09;;;;;;;6.67;4.57;;;;;;;;;;5012221;28;20180;-68
2023/09/29 01:10:36;;;;;;;6.30;4.63;;;;;;;;;;5013488;28;20199;-68
2023/09/29 01:13:02;;;;;;;9.90;4.90;;;;;;;;;;5014778;28;20214;-69
2023/09/29 01:15:29;;;;;;;6.20;4.33;;;;;;;;;;5019585;28;20207;-70
2023/09/29 01:17:54;;;;;;;7.97;4.53;;;;;;;;;;5016598;28;20186;-70
2023/09/29 01:20:29;;;;;;;10.53;5.27;;;;;;;;;;5015149;28;20180;-69
2023/09/29 01:22:56;;;;;;;7.40;4.50;;;;;;;;;;5014410;28;20188;-69
2023/09/29 01:25:22;;;;;;;7.03;4.40;;;;;;;;;;5012113;28;20230;-69
2023/09/29 01:27:49;;;;;;;8.37;4.33;;;;;;;;;;5012278;28;20184;-68
2023/09/29 01:30:16;;;;;;;9.20;4.47;;;;;;;;;;5013888;28;20255;-69
2023/09/29 01:32:42;;;;;;;9.27;4.70;;;;;;;;;;5012761;28;20180;-69
2023/09/29 01:35:10;;;;;;;8.23;4.80;;;;;;;;;;5015453;28;20277;-68
2023/09/29 01:37:38;;;;;;;7.13;4.47;;;;;;;;;;5015402;28;20180;-69
2023/09/29 01:40:05;;;;;;;9.97;4.40;;;;;;;;;;5016425;28;20299;-69
2023/09/29 01:42:31;;;;;;;7.90;5.03;;;;;;;;;;5017217;28;20199;-69
2023/09/29 01:44:57;;;;;;;6.83;3.93;;;;;;;;;;4984156;28;1065240;-70
2023/09/29 01:47:24;;;;;;;7.73;4.40;;;;;;;;;;5027453;28;20210;-69
2023/09/29 01:49:50;;;;;;;9.43;4.77;;;;;;;;;;5026245;28;20172;-69
2023/09/29 01:52:16;;;;;;;9.90;5.20;;;;;;;;;;5019488;28;20199;-69
2023/09/29 01:54:42;;;;;;;8.20;5.07;;;;;;;;;;5019030;28;20669;-69
2023/09/29 01:57:08;;;;;;;7.57;5.00;;;;;;;;;;5016762;28;20182;-68
2023/09/29 01:59:36;;;;;;;8.03;4.47;;;;;;;;;;5018003;28;20180;-69
2023/09/29 02:02:02;;;;;;;7.63;4.57;;;;;;;;;;5016448;28;20184;-69
2023/09/29 02:04:28;;;;;;;8.43;4.83;;;;;;;;;;5016437;28;20200;-69
2023/09/29 02:06:54;;;;;;;6.53;4.23;;;;;;;;;;5017379;28;20175;-68
2023/09/29 02:09:20;;;;;;;8.63;4.70;;;;;;;;;;5017460;28;20634;-68
2023/09/29 02:11:48;;;;;;;8.07;5.30;;;;;;;;;;5015924;28;20215;-69
2023/09/29 02:14:14;;;;;;;9.33;4.47;;;;;;;;;;5015881;28;20215;-69
2023/09/29 02:16:40;;;;;;;9.43;4.50;;;;;;;;;;5017491;28;20172;-70
2023/09/29 02:19:06;;;;;;;8.00;4.73;;;;;;;;;;5017202;28;20196;-70
2023/09/29 02:21:32;;;;;;;11.70;5.17;;;;;;;;;;5016107;28;20188;-69
2023/09/29 02:24:02;;;;;;;5.27;4.67;;;;;;;;;;5017284;28;20203;-69
2023/09/29 02:26:29;;;;;;;8.90;5.20;;;;;;;;;;5015626;28;20184;-70
2023/09/29 02:28:56;;;;;;;10.00;4.90;;;;;;;;;;5017386;28;20263;-70
2023/09/29 02:31:22;;;;;;;8.33;5.43;;;;;;;;;;5017210;28;20257;-70
2023/09/29 02:33:50;;;;;;;10.67;5.07;;;;;;;;;;5015749;28;20283;-70
2023/09/29 02:36:16;;;;;;;10.33;5.23;;;;;;;;;;5017555;28;20646;-69
2023/09/29 02:38:42;;;;;;;8.67;5.10;;;;;;;;;;5015579;28;20188;-70
2023/09/29 02:41:09;;;;;;;9.37;5.20;;;;;;;;;;5017201;28;20506;-70
2023/09/29 02:43:35;;;;;;;8.20;5.30;;;;;;;;;;5016123;28;20214;-69
2023/09/29 02:46:01;;;;;;;8.80;5.50;;;;;;;;;;5016880;28;20168;-70
2023/09/29 02:48:30;;;;;;;8.70;5.23;;;;;;;;;;5016860;28;20234;-70
2023/09/29 02:50:56;;;;;;;9.80;5.47;;;;;;;;;;5015342;28;20318;-70
2023/09/29 02:53:22;;;;;;;9.17;5.10;;;;;;;;;;5015468;28;20183;-70
2023/09/29 02:55:48;;;;;;;12.87;5.67;;;;;;;;;;5015528;28;20283;-70
2023/09/29 02:58:16;;;;;;;11.43;6.23;;;;;;;;;;5016698;28;20176;-70
2023/09/29 03:00:42;;;;;;;9.30;5.67;;;;;;;;;;5016832;28;20183;-70
2023/09/29 03:03:09;;;;;;;9.47;5.67;;;;;;;;;;5016691;28;20314;-71
2023/09/29 03:05:35;;;;;;;8.00;4.87;;;;;;;;;;5017318;28;20208;-70
2023/09/29 03:08:01;;;;;;;8.57;5.70;;;;;;;;;;5018648;28;20346;-70
2023/09/29 03:10:30;;;;;;;7.90;5.70;;;;;;;;;;5016895;28;20234;-70
2023/09/29 03:12:56;;;;;;;10.77;5.33;;;;;;;;;;5018554;28;20184;-70
2023/09/29 03:15:23;;;;;;;7.43;5.00;;;;;;;;;;5017896;28;20210;-70
2023/09/29 03:17:49;;;;;;;6.63;5.53;;;;;;;;;;5018072;28;20211;-70
2023/09/29 03:20:16;;;;;;;11.47;5.27;;;;;;;;;;5017054;28;20307;-69
2023/09/29 03:22:44;;;;;;;7.47;5.37;;;;;;;;;;5025368;28;20176;-69
2023/09/29 03:25:10;;;;;;;11.07;6.13;;;;;;;;;;5023261;28;20204;-69
2023/09/29 03:27:36;;;;;;;11.20;6.93;;;;;;;;;;5018125;28;20180;-70
2023/09/29 03:30:04;;;;;;;9.40;6.63;;;;;;;;;;5016574;28;20191;-69
2023/09/29 03:32:30;;;;;;;11.30;6.90;;;;;;;;;;5016142;28;20207;-69
2023/09/29 03:34:57;;;;;;;13.33;6.87;;;;;;;;;;5016086;28;20195;-69
2023/09/29 03:37:23;;;;;;;15.13;7.27;;;;;;;;;;5014741;28;20676;-70
2023/09/29 03:39:49;;;;;;;12.33;7.80;;;;;;;;;;5014703;28;20199;-70
2023/09/29 03:42:22;;;;;;;10.17;7.80;;;;;;;;;;5015726;28;20183;-69
2023/09/29 03:44:48;;;;;;;12.67;7.80;;;;;;;;;;5014134;28;20243;-69
2023/09/29 03:47:14;;;;;;;11.27;7.57;;;;;;;;;;5014492;28;20198;-70
2023/09/29 03:49:40;;;;;;;11.97;7.67;;;;;;;;;;5014623;28;20183;-70
2023/09/29 03:52:07;;;;;;;11.30;8.37;;;;;;;;;;5016078;28;20254;-69
2023/09/29 03:54:33;;;;;;;12.03;8.30;;;;;;;;;;5014666;28;20203;-70
2023/09/29 03:57:03;;;;;;;9.10;7.40;;;;;;;;;;5015191;28;20584;-70
2023/09/29 03:59:29;;;;;;;12.90;8.10;;;;;;;;;;5017093;28;20630;-69
2023/09/29 04:01:55;;;;;;;12.57;7.17;;;;;;;;;;5022252;28;20210;-69
2023/09/29 04:04:21;;;;;;;13.47;7.67;;;;;;;;;;5022578;28;20215;-69
2023/09/29 04:06:47;;;;;;;10.17;7.80;;;;;;;;;;5017565;28;20184;-70
2023/09/29 04:09:14;;;;;;;12.40;7.83;;;;;;;;;;5014647;28;20179;-69
2023/09/29 04:11:40;;;;;;;11.77;8.00;;;;;;;;;;5015740;28;20669;-69
2023/09/29 04:14:06;;;;;;;15.10;8.40;;;;;;;;;;5015447;28;20202;-69
2023/09/29 04:16:32;;;;;;;12.20;8.60;;;;;;;;;;5014089;28;20255;-69
2023/09/29 04:18:58;;;;;;;10.20;7.90;;;;;;;;;;5015503;28;20580;-69
2023/09/29 04:21:24;;;;;;;18.83;9.30;;;;;;;;;;5015123;28;20183;-69
2023/09/29 04:23:50;;;;;;;15.20;8.90;;;;;;;;;;5014630;28;20203;-69
2023/09/29 04:26:18;;;;;;;16.07;8.97;;;;;;;;;;5014738;28;20180;-69
2023/09/29 04:28:44;;;;;;;13.70;8.77;;;;;;;;;;5015068;28;20176;-70
2023/09/29 04:31:11;;;;;;;11.53;8.37;;;;;;;;;;5014616;28;20211;-69
2023/09/29 04:33:37;;;;;;;17.60;8.87;;;;;;;;;;5014716;28;20192;-69
2023/09/29 04:36:03;;;;;;;13.43;8.40;;;;;;;;;;5015224;28;20258;-69
2023/09/29 04:38:29;;;;;;;14.10;8.27;;;;;;;;;;5014748;28;20204;-70
2023/09/29 04:40:55;;;;;;;13.50;8.60;;;;;;;;;;5014928;28;20273;-68
2023/09/29 04:43:23;;;;;;;10.03;8.20;;;;;;;;;;5014537;28;20221;-68
2023/09/29 04:45:49;;;;;;;14.13;8.50;;;;;;;;;;5013366;28;20250;-69
2023/09/29 04:48:15;;;;;;;14.13;8.23;;;;;;;;;;5013022;28;20587;-68
2023/09/29 04:50:41;;;;;;;13.73;8.67;;;;;;;;;;5014436;28;20271;-68
2023/09/29 04:53:07;;;;;;;11.60;8.70;;;;;;;;;;5015408;28;20199;-68
2023/09/29 04:55:33;;;;;;;11.63;8.53;;;;;;;;;;5015095;28;20263;-69
2023/09/29 04:57:59;;;;;;;11.53;8.10;;;;;;;;;;5014809;28;20183;-68
2023/09/29 05:00:26;;;;;;;10.07;7.50;;;;;;;;;;5014717;28;20275;-68
2023/09/29 05:02:52;;;;;;;11.47;7.57;;;;;;;;;;5012909;28;20611;-68
2023/09/29 05:05:18;;;;;;;12.50;8.70;;;;;;;;;;5012895;28;20191;-69
2023/09/29 05:07:45;;;;;;;9.40;7.07;;;;;;;;;;5013022;28;20549;-68
2023/09/29 05:10:13;;;;;;;8.90;6.90;;;;;;;;;;5014450;28;20656;-68
2023/09/29 05:12:39;;;;;;;12.03;6.73;;;;;;;;;;5014922;28;20669;-68
2023/09/29 05:15:05;;;;;;;11.33;6.30;;;;;;;;;;5013867;28;20208;-68
2023/09/29 05:17:31;;;;;;;9.90;6.50;;;;;;;;;;5015201;28;20182;-68
2023/09/29 05:19:57;;;;;;;6.97;5.33;;;;;;;;;;5013744;28;20274;-68
2023/09/29 05:22:23;;;;;;;10.80;5.47;;;;;;;;;;5015115;28;20187;-69
2023/09/29 05:24:50;;;;;;;7.13;5.37;;;;;;;;;;5015038;28;20203;-69
2023/09/29 05:27:16;;;;;;;7.90;5.20;;;;;;;;;;5013625;28;20191;-70
2023/09/29 05:29:42;;;;;;;9.13;5.33;;;;;;;;;;5017133;28;20329;-69
2023/09/29 05:32:08;;;;;;;9.77;5.40;;;;;;;;;;5019718;28;20294;-69
2023/09/29 05:34:34;;;;;;;8.40;4.73;;;;;;;;;;5017277;28;20617;-69
2023/09/29 05:37:01;;;;;;;9.87;5.13;;;;;;;;;;5013261;28;20184;-69
2023/09/29 05:39:27;;;;;;;7.90;4.73;;;;;;;;;;5012860;28;20179;-69
2023/09/29 05:41:53;;;;;;;6.77;5.17;;;;;;;;;;5013767;28;20195;-69
2023/09/29 05:44:19;;;;;;;7.03;4.80;;;;;;;;;;5013565;28;20689;-69
2023/09/29 05:46:45;;;;;;;7.37;5.13;;;;;;;;;;5013587;28;20265;-69
2023/09/29 05:49:11;;;;;;;9.73;5.93;;;;;;;;;;5014238;28;20176;-69
2023/09/29 05:51:37;;;;;;;9.63;6.40;;;;;;;;;;5036909;23;20615;-68
2023/09/29 05:54:04;;;;;;;11.73;6.20;;;;;;;;;;5011694;28;20222;-69
2023/09/29 05:56:31;;;;;;;6.97;6.17;;;;;;;;;;5011478;28;20172;-69
2023/09/29 05:58:57;;;;;;;9.97;6.33;;;;;;;;;;5013022;28;20172;-68
2023/09/29 06:01:25;;;;;;;8.93;6.03;;;;;;;;;;5012701;28;20209;-69
2023/09/29 06:03:51;;;;;;;8.17;5.73;;;;;;;;;;5011595;28;20219;-69
2023/09/29 06:06:18;;;;;;;10.00;5.70;;;;;;;;;;5011238;28;20184;-70
2023/09/29 06:08:44;;;;;;;9.23;5.87;;;;;;;;;;5012676;28;20291;-69
2023/09/29 06:11:10;;;;;;;6.17;5.10;;;;;;;;;;5011152;28;20215;-69
2023/09/29 06:13:37;;;;;;;7.07;5.23;;;;;;;;;;5012785;28;20656;-69
2023/09/29 06:16:04;;;;;;;6.73;4.77;;;;;;;;;;5012233;28;20211;-69
2023/09/29 06:18:30;;;;;;;6.53;5.37;;;;;;;;;;5011897;28;20172;-69
2023/09/29 06:20:56;;;;;;;9.37;4.67;;;;;;;;;;5016074;28;20208;-69
2023/09/29 06:23:22;;;;;;;6.37;4.70;;;;;;;;;;5016357;28;20198;-69
2023/09/29 06:25:55;;;;;;;6.77;4.77;;;;;;;;;;5015891;28;20187;-69
2023/09/29 06:28:21;;;;;;;7.60;5.40;;;;;;;;;;5014967;28;20271;-70
2023/09/29 06:30:48;;;;;;;5.87;5.23;;;;;;;;;;5015887;28;20306;-69
2023/09/29 06:33:14;;;;;;;35.53;18.97;;;;;;;;;;5016072;28;20265;-69
2023/09/29 06:35:41;;;;;;;47.73;24.20;;;;;;;;;;5016111;28;20710;-68
2023/09/29 06:38:07;;;;;;;58.63;27.50;;;;;;;;;;5016374;28;20176;-69
2023/09/29 06:40:33;;;;;;;87.57;35.80;;;;;;;;;;5014716;28;20708;-69
2023/09/29 06:42:59;;;;;;;67.27;27.50;;;;;;;;;;5015997;28;20172;-69
2023/09/29 06:45:29;;;;;;;52.70;25.70;;;;;;;;;;5015890;28;20214;-69
2023/09/29 06:47:55;;;;;;;43.63;18.70;;;;;;;;;;5017882;28;20548;-70
2023/09/29 06:50:21;;;;;;;21.63;11.03;;;;;;;;;;5014376;28;20219;-69
2023/09/29 06:52:48;;;;;;;18.07;9.07;;;;;;;;;;5015794;28;20199;-69
2023/09/29 06:55:14;;;;;;;14.43;8.27;;;;;;;;;;5014531;28;20183;-69
2023/09/29 06:57:41;;;;;;;15.37;9.83;;;;;;;;;;5015806;28;20198;-70
2023/09/29 07:00:10;;;;;;;20.43;11.77;;;;;;;;;;5016000;28;20199;-70
2023/09/29 07:02:37;;;;;;;9.37;5.87;;;;;;;;;;5016471;28;20175;-67
2023/09/29 07:05:03;;;;;;;12.17;8.50;;;;;;;;;;5015008;28;20599;-70
2023/09/29 07:07:29;;;;;;;14.40;8.03;;;;;;;;;;5014348;28;20187;-70
2023/09/29 07:09:55;;;;;;;14.03;8.00;;;;;;;;;;5014829;28;20184;-70
2023/09/29 07:12:21;;;;;;;13.90;8.63;;;;;;;;;;5015545;28;20704;-69
2023/09/29 07:14:47;;;;;;;13.97;9.50;;;;;;;;;;5014107;28;20660;-70
2023/09/29 07:17:13;;;;;;;19.40;10.43;;;;;;;;;;5014015;28;20207;-70
2023/09/29 07:19:39;;;;;;;14.50;8.67;;;;;;;;;;5014491;28;20271;-72
2023/09/29 07:22:08;;;;;;;14.67;9.70;;;;;;;;;;5014635;28;20211;-70
2023/09/29 07:24:34;;;;;;;17.83;10.97;;;;;;;;;;5014407;28;20184;-70
2023/09/29 07:27:00;;;;;;;14.07;8.90;;;;;;;;;;5014992;28;20225;-70
2023/09/29 07:29:26;;;;;;;14.87;7.90;;;;;;;;;;5013436;28;20184;-70
2023/09/29 07:31:52;;;;;;;13.87;7.40;;;;;;;;;;5012275;28;20222;-70
2023/09/29 07:34:18;;;;;;;15.40;7.40;;;;;;;;;;5013262;28;20279;-69
2023/09/29 07:36:45;;;;;;;16.40;7.20;;;;;;;;;;5014794;28;20242;-68
2023/09/29 07:39:13;;;;;;;14.67;7.30;;;;;;;;;;5014755;28;20180;-70
2023/09/29 07:41:39;;;;;;;11.20;7.57;;;;;;;;;;5013365;28;20368;-69
2023/09/29 07:44:06;;;;;;;14.60;7.57;;;;;;;;;;5013531;28;20187;-67
2023/09/29 07:46:33;;;;;;;10.13;6.77;;;;;;;;;;5014758;28;20233;-71
2023/09/29 07:48:59;;;;;;;13.13;7.73;;;;;;;;;;5015178;28;20203;-69
2023/09/29 07:51:25;;;;;;;13.10;8.27;;;;;;;;;;5014430;28;20218;-69
2023/09/29 07:53:51;;;;;;;11.13;7.70;;;;;;;;;;5014627;28;20180;-70
2023/09/29 07:56:17;;;;;;;11.10;6.07;;;;;;;;;;5014500;28;20175;-70
2023/09/29 07:58:43;;;;;;;17.43;8.77;;;;;;;;;;5014617;28;20186;-70
2023/09/29 08:01:10;;;;;;;11.03;7.27;;;;;;;;;;5013173;28;20219;-70
2023/09/29 08:03:36;;;;;;;13.43;7.33;;;;;;;;;;5014352;28;20266;-70
2023/09/29 08:06:03;;;;;;;15.47;7.20;;;;;;;;;;5014326;28;20207;-70
2023/09/29 08:08:29;;;;;;;17.53;6.27;;;;;;;;;;5014434;28;20171;-70
2023/09/29 08:10:55;;;;;;;10.03;5.60;;;;;;;;;;5014105;28;20208;-70
2023/09/29 08:13:23;;;;;;;9.33;5.67;;;;;;;;;;5012573;28;20179;-70
2023/09/29 08:15:49;;;;;;;9.50;6.20;;;;;;;;;;5014394;28;20179;-70
2023/09/29 08:18:17;;;;;;;9.87;6.17;;;;;;;;;;5012832;28;20180;-70
2023/09/29 08:20:43;;;;;;;9.03;5.23;;;;;;;;;;5012678;28;20581;-70
2023/09/29 08:23:09;;;;;;;10.53;5.33;;;;;;;;;;5014114;28;20240;-70
2023/09/29 08:25:35;;;;;;;10.73;6.10;;;;;;;;;;5012403;28;20660;-69
2023/09/29 08:28:02;;;;;;;12.77;5.67;;;;;;;;;;5014379;28;20303;-70
2023/09/29 08:30:29;;;;;;;9.93;7.43;;;;;;;;;;5013952;28;20348;-70
2023/09/29 08:32:55;;;;;;;12.63;6.27;;;;;;;;;;5012771;28;20219;-70
2023/09/29 08:35:21;;;;;;;13.40;6.80;;;;;;;;;;5012980;28;20179;-69
2023/09/29 08:37:49;;;;;;;13.57;7.20;;;;;;;;;;5012406;28;20188;-69
2023/09/29 08:40:16;;;;;;;11.57;5.80;;;;;;;;;;5014306;28;20172;-70
2023/09/29 08:42:45;;;;;;;13.03;5.10;;;;;;;;;;5013371;28;20255;-70
2023/09/29 08:45:12;;;;;;;7.77;4.73;;;;;;;;;;5012326;28;20184;-69
2023/09/29 08:47:40;;;;;;;11.10;4.63;;;;;;;;;;5013817;28;20654;-69
2023/09/29 08:50:06;;;;;;;8.33;4.37;;;;;;;;;;5013530;28;20192;-70
2023/09/29 08:52:33;;;;;;;6.23;4.10;;;;;;;;;;5012773;28;20246;-70
2023/09/29 08:55:03;;;;;;;11.33;4.30;;;;;;;;;;5013931;28;20183;-70
2023/09/29 08:57:29;;;;;;;7.80;4.17;;;;;;;;;;5014097;28;20176;-70
2023/09/29 08:59:55;;;;;;;9.57;4.30;;;;;;;;;;5013701;28;20190;-70
2023/09/29 09:02:26;;;;;;;8.27;4.10;;;;;;;;;;5013678;28;20692;-70
2023/09/29 09:04:52;;;;;;;6.97;4.00;;;;;;;;;;5014640;28;20168;-70
2023/09/29 09:07:19;;;;;;;8.10;4.70;;;;;;;;;;5013135;28;20180;-70
2023/09/29 09:09:53;;;;;;;9.23;4.53;;;;;;;;;;5014249;28;20179;-70
2023/09/29 09:12:31;;;;;;;12.13;4.30;;;;;;;;;;5014533;28;20208;-70
2023/09/29 09:14:57;;;;;;;5.57;3.30;;;;;;;;;;5012263;28;20310;-70
2023/09/29 09:17:23;;;;;;;6.07;3.53;;;;;;;;;;5013113;28;20176;-70
2023/09/29 09:19:53;;;;;;;6.67;3.67;;;;;;;;;;5013702;28;20178;-70
2023/09/29 09:22:25;;;;;;;5.83;3.50;;;;;;;;;;5011702;28;20286;-70
2023/09/29 09:24:57;;;;;;;5.83;3.13;;;;;;;;;;5013159;28;20172;-71
2023/09/29 09:27:23;;;;;;;4.60;2.97;;;;;;;;;;5011687;28;20647;-69
2023/09/29 09:29:49;;;;;;;6.43;3.53;;;;;;;;;;5013418;28;20180;-70
2023/09/29 09:32:15;;;;;;;5.70;3.30;;;;;;;;;;5012853;28;20584;-69
2023/09/29 09:34:42;;;;;;;5.67;3.50;;;;;;;;;;5013005;28;20180;-70
2023/09/29 09:37:11;;;;;;;6.17;3.00;;;;;;;;;;5011687;28;20186;-70
2023/09/29 09:39:38;;;;;;;4.37;3.23;;;;;;;;;;5011636;28;20707;-70
2023/09/29 09:42:05;;;;;;;4.93;3.27;;;;;;;;;;5011383;28;20215;-70
2023/09/29 09:44:32;;;;;;;5.80;3.73;;;;;;;;;;5013031;28;20176;-70
2023/09/29 09:47:01;;;;;;;7.77;3.20;;;;;;;;;;5013227;28;20180;-70
2023/09/29 09:49:41;;;;;;;6.83;3.33;;;;;;;;;;5012827;28;20175;-69
2023/09/29 09:52:15;;;;;;;5.83;3.10;;;;;;;;;;5012537;28;20215;-69
2023/09/29 09:54:56;;;;;;;8.43;3.17;;;;;;;;;;5014164;28;20176;-70
2023/09/29 09:57:34;;;;;;;8.30;3.60;;;;;;;;;;5016711;28;20183;-68
2023/09/29 10:00:07;;;;;;;5.43;3.43;;;;;;;;;;5016911;28;20159;-69
2023/09/29 10:02:38;;;;;;;7.00;3.73;;;;;;;;;;5015223;28;20180;-69
2023/09/29 10:05:10;;;;;;;5.73;3.07;;;;;;;;;;5017093;28;20179;-69
2023/09/29 10:07:44;;;;;;;6.73;3.63;;;;;;;;;;5017177;28;20607;-68
2023/09/29 10:10:10;;;;;;;5.67;3.93;;;;;;;;;;5016782;28;20168;-69
2023/09/29 10:12:36;;;;;;;6.47;3.50;;;;;;;;;;5016622;28;20215;-69
2023/09/29 10:15:05;;;;;;;8.27;3.83;;;;;;;;;;5015254;28;20182;-69
2023/09/29 10:17:41;;;;;;;6.63;4.20;;;;;;;;;;5015047;28;20176;-69
2023/09/29 10:20:19;;;;;;;8.87;3.57;;;;;;;;;;5015005;28;20180;-69
2023/09/29 10:22:46;;;;;;;7.77;4.43;;;;;;;;;;5015389;28;20263;-69
2023/09/29 10:25:19;;;;;;;9.73;4.70;;;;;;;;;;5014856;28;20198;-69
2023/09/29 10:27:49;;;;;;;7.07;4.07;;;;;;;;;;5016404;28;20171;-69
2023/09/29 10:30:18;;;;;;;8.27;3.90;;;;;;;;;;5017693;28;20634;-69
2023/09/29 10:32:48;;;;;;;7.60;4.00;;;;;;;;;;5018545;28;20219;-70
2023/09/29 10:35:22;;;;;;;12.53;4.47;;;;;;;;;;5018097;28;20172;-69
2023/09/29 10:37:55;;;;;;;5.27;3.87;;;;;;;;;;5016230;28;20243;-70
2023/09/29 10:40:22;;;;;;;7.83;3.50;;;;;;;;;;5015919;28;20203;-69
2023/09/29 10:42:48;;;;;;;6.57;3.60;;;;;;;;;;5017305;28;20184;-69
2023/09/29 10:45:36;;;;;;;9.93;4.30;;;;;;;;;;5016046;28;20184;-69
2023/09/29 10:48:06;;;;;;;8.13;4.27;;;;;;;;;;5017858;28;20618;-69
2023/09/29 10:50:42;;;;;;;10.17;4.17;;;;;;;;;;5016509;28;20211;-68
2023/09/29 10:53:08;;;;;;;7.50;4.27;;;;;;;;;;5015165;28;20184;-69
2023/09/29 10:55:35;;;;;;;9.13;4.50;;;;;;;;;;5014734;28;20191;-69
2023/09/29 10:58:03;;;;;;;7.00;4.27;;;;;;;;;;5016917;28;20172;-69
2023/09/29 11:00:29;;;;;;;10.37;4.30;;;;;;;;;;5015733;28;20571;-69
2023/09/29 11:02:55;;;;;;;8.93;4.30;;;;;;;;;;5016028;28;20176;-67
2023/09/29 11:05:21;;;;;;;7.70;4.07;;;;;;;;;;5014979;28;20191;-68
2023/09/29 11:07:49;;;;;;;8.67;4.40;;;;;;;;;;5016281;28;20648;-68
2023/09/29 11:10:17;;;;;;;10.83;4.57;;;;;;;;;;5015246;28;20532;-68
2023/09/29 11:12:46;;;;;;;9.57;4.77;;;;;;;;;;5016293;28;20227;-68
2023/09/29 11:15:13;;;;;;;7.70;4.63;;;;;;;;;;5014507;28;20184;-68
2023/09/29 11:17:50;;;;;;;7.47;4.00;;;;;;;;;;5016027;28;20615;-68
2023/09/29 11:20:26;;;;;;;7.53;4.27;;;;;;;;;;5016032;28;20175;-67
2023/09/29 11:23:14;;;;;;;9.27;4.27;;;;;;;;;;5018878;28;20175;-65
2023/09/29 11:25:50;;;;;;;9.97;4.20;;;;;;;;;;5015343;28;20183;-67
2023/09/29 11:28:17;;;;;;;8.13;3.77;;;;;;;;;;5014972;28;20275;-67
2023/09/29 11:30:43;;;;;;;6.80;3.90;;;;;;;;;;5014868;28;20223;-67
2023/09/29 11:33:15;;;;;;;29.50;6.00;;;;;;;;;;5015509;28;20267;-69
2023/09/29 11:35:45;;;;;;;8.30;4.23;;;;;;;;;;5013608;28;20176;-69
2023/09/29 11:38:15;;;;;;;8.07;4.27;;;;;;;;;;5014767;28;20179;-68
2023/09/29 11:40:41;;;;;;;9.07;3.90;;;;;;;;;;5014761;28;20204;-68
2023/09/29 11:43:07;;;;;;;11.50;4.70;;;;;;;;;;5013489;28;20237;-69
2023/09/29 11:45:33;;;;;;;8.10;3.93;;;;;;;;;;5014735;28;20191;-68
2023/09/29 11:47:59;;;;;;;7.40;3.97;;;;;;;;;;5013366;28;20180;-69
2023/09/29 11:50:25;;;;;;;6.53;3.80;;;;;;;;;;5014603;28;20215;-66
2023/09/29 11:52:51;;;;;;;10.17;4.73;;;;;;;;;;5014857;28;20650;-69
2023/09/29 11:55:17;;;;;;;6.87;4.27;;;;;;;;;;5013437;28;20179;-69
2023/09/29 11:57:43;;;;;;;9.77;4.70;;;;;;;;;;5013111;28;20180;-69
2023/09/29 12:00:10;;;;;;;11.33;4.23;;;;;;;;;;5013215;28;20538;-68
2023/09/29 12:02:37;;;;;;;6.20;4.07;;;;;;;;;;5014011;28;20186;-69
2023/09/29 12:05:07;;;;;;;6.57;4.40;;;;;;;;;;5013422;28;20184;-68
2023/09/29 12:07:33;;;;;;;8.87;4.43;;;;;;;;;;5015025;28;20267;-68
2023/09/29 12:10:00;;;;;;;7.70;4.17;;;;;;;;;;5014197;28;20688;-69
2023/09/29 12:12:26;;;;;;;8.23;4.03;;;;;;;;;;5014716;28;20307;-70
2023/09/29 12:14:53;;;;;;;7.80;3.83;;;;;;;;;;5014755;28;20203;-69
2023/09/29 12:17:19;;;;;;;8.30;4.33;;;;;;;;;;5014103;28;20191;-69
2023/09/29 12:19:45;;;;;;;8.77;4.03;;;;;;;;;;5013106;28;20215;-68
2023/09/29 12:22:11;;;;;;;7.10;4.10;;;;;;;;;;5013972;28;20207;-68
2023/09/29 12:24:40;;;;;;;10.63;4.67;;;;;;;;;;5013077;28;20677;-69
2023/09/29 12:27:09;;;;;;;7.70;3.90;;;;;;;;;;5013878;28;20262;-68
2023/09/29 12:29:35;;;;;;;8.37;3.90;;;;;;;;;;5012278;28;20642;-69
2023/09/29 12:32:01;;;;;;;5.40;2.83;;;;;;;;;;5013540;28;20231;-68
2023/09/29 12:34:32;;;;;;;4.33;3.07;;;;;;;;;;5013864;28;20653;-68
2023/09/29 12:36:59;;;;;;;4.13;2.37;;;;;;;;;;5013757;28;20156;-69
2023/09/29 12:39:25;;;;;;;4.63;2.70;;;;;;;;;;5013880;28;20207;-68
2023/09/29 12:41:51;;;;;;;4.47;2.93;;;;;;;;;;5012309;28;20238;-68
2023/09/29 12:44:17;;;;;;;5.63;3.30;;;;;;;;;;5012297;28;20210;-68
2023/09/29 12:46:44;;;;;;;5.77;3.10;;;;;;;;;;5013451;28;20183;-67
2023/09/29 12:49:10;;;;;;;5.17;3.27;;;;;;;;;;5013491;28;20194;-68
2023/09/29 12:51:36;;;;;;;8.10;3.70;;;;;;;;;;5013366;28;20212;-68
2023/09/29 12:54:02;;;;;;;5.80;3.50;;;;;;;;;;5012283;28;20187;-69
2023/09/29 12:56:28;;;;;;;7.00;3.47;;;;;;;;;;5012017;28;20246;-68
2023/09/29 12:58:55;;;;;;;9.03;3.90;;;;;;;;;;5013385;28;20587;-69
2023/09/29 13:01:21;;;;;;;6.90;3.53;;;;;;;;;;5012033;28;20204;-69
2023/09/29 13:03:47;;;;;;;5.83;3.57;;;;;;;;;;5012079;28;20191;-69
2023/09/29 13:06:13;;;;;;;5.27;3.23;;;;;;;;;;5013528;28;20314;-68
2023/09/29 13:08:39;;;;;;;6.27;3.50;;;;;;;;;;5011777;28;20179;-69
2023/09/29 13:11:05;;;;;;;7.73;3.30;;;;;;;;;;5013916;28;20216;-70
2023/09/29 13:13:32;;;;;;;5.83;3.17;;;;;;;;;;5012154;28;20197;-70
2023/09/29 13:16:01;;;;;;;3.93;2.70;;;;;;;;;;5011770;28;20184;-70
2023/09/29 13:18:29;;;;;;;7.30;3.70;;;;;;;;;;5013033;28;20172;-69
2023/09/29 13:20:55;;;;;;;6.07;3.20;;;;;;;;;;5013036;28;20211;-70
2023/09/29 13:23:21;;;;;;;6.87;3.10;;;;;;;;;;5012801;28;20613;-69
2023/09/29 13:25:47;;;;;;;6.27;2.80;;;;;;;;;;5012904;28;20262;-69
2023/09/29 13:28:13;;;;;;;7.93;2.77;;;;;;;;;;5012052;28;20255;-70
2023/09/29 13:30:39;;;;;;;5.10;2.63;;;;;;;;;;5011439;28;20299;-67
2023/09/29 13:33:05;;;;;;;4.50;2.53;;;;;;;;;;5012879;28;20211;-67
2023/09/29 13:35:31;;;;;;;2.90;2.10;;;;;;;;;;5011519;28;20255;-69
2023/09/29 13:37:57;;;;;;;4.00;2.50;;;;;;;;;;5011665;28;20172;-70
2023/09/29 13:40:23;;;;;;;3.37;2.20;;;;;;;;;;5011440;28;20287;-71
2023/09/29 13:42:49;;;;;;;5.03;2.50;;;;;;;;;;5013029;28;20184;-67
2023/09/29 13:45:17;;;;;;;3.37;2.03;;;;;;;;;;5012847;28;20183;-69
2023/09/29 13:47:43;;;;;;;3.00;2.47;;;;;;;;;;5012479;28;20172;-71
2023/09/29 13:50:11;;;;;;;6.37;2.47;;;;;;;;;;5011177;28;20188;-70
2023/09/29 13:52:37;;;;;;;6.03;2.50;;;;;;;;;;5013218;28;20667;-69
2023/09/29 13:55:04;;;;;;;5.13;2.70;;;;;;;;;;5013339;28;20204;-69
2023/09/29 13:57:31;;;;;;;6.13;3.03;;;;;;;;;;5012920;28;20724;-69
2023/09/29 13:59:57;;;;;;;7.90;3.10;;;;;;;;;;5013180;28;20180;-69
2023/09/29 14:02:22;;;;;;;7.50;3.33;;;;;;;;;;5012602;28;20206;-69
2023/09/29 14:04:48;;;;;;;8.07;3.50;;;;;;;;;;5011424;28;20175;-67
2023/09/29 14:07:14;;;;;;;9.03;4.83;;;;;;;;;;5012635;28;20195;-66
2023/09/29 14:09:41;;;;;;;7.00;4.10;;;;;;;;;;5013029;28;20190;-67
2023/09/29 14:12:10;;;;;;;6.90;3.33;;;;;;;;;;5011135;28;20243;-68
2023/09/29 14:14:36;;;;;;;6.20;3.27;;;;;;;;;;5011565;28;20529;-68
2023/09/29 14:17:03;;;;;;;10.03;4.23;;;;;;;;;;5011670;28;20172;-68
2023/09/29 14:19:29;;;;;;;10.97;4.27;;;;;;;;;;5011814;28;20238;-68
2023/09/29 14:21:56;;;;;;;10.13;4.97;;;;;;;;;;5011178;28;20747;-69
2023/09/29 14:24:22;;;;;;;9.43;4.43;;;;;;;;;;5011160;28;20207;-66
2023/09/29 14:26:48;;;;;;;10.00;5.93;;;;;;;;;;5011492;28;20650;-68
2023/09/29 14:29:16;;;;;;;8.57;4.87;;;;;;;;;;5012558;28;20190;-67
2023/09/29 14:31:44;;;;;;;6.63;3.83;;;;;;;;;;5010940;28;20215;-68
2023/09/29 14:34:19;;;;;;;7.60;4.33;;;;;;;;;;5012690;28;20194;-68
2023/09/29 14:36:45;;;;;;;7.93;4.67;;;;;;;;;;5011899;28;20313;-68
2023/09/29 14:39:11;;;;;;;14.87;5.97;;;;;;;;;;5012712;28;20600;-69